createdAt,value
2023-04-12T00:01:33.152Z,95.25
2023-04-12T00:04:28.287Z,95.29
2023-04-12T00:07:40.861Z,95.35
2023-04-12T00:10:35.911Z,95.31
2023-04-12T00:13:18.015Z,95.27
2023-04-12T00:16:18.943Z,95.23
2023-04-12T00:19:18.124Z,95.46
2023-04-12T00:21:55.877Z,95.48
2023-04-12T00:24:29.294Z,95.59
2023-04-12T00:27:31.088Z,95.67
2023-04-12T00:30:12.419Z,95.76
2023-04-12T00:33:00.777Z,95.85
2023-04-12T00:36:20.227Z,95.71
2023-04-12T00:39:05.552Z,95.57
2023-04-12T00:42:18.382Z,95.25
2023-04-12T00:44:59.117Z,95.14
2023-04-12T00:47:40.902Z,95.07
2023-04-12T00:50:11.340Z,94.77
2023-04-12T00:53:02.327Z,94.91
2023-04-12T00:55:42.471Z,94.79
2023-04-12T00:58:31.880Z,94.81
2023-04-12T01:01:07.375Z,94.81
2023-04-12T01:03:47.718Z,94.83
2023-04-12T01:07:07.541Z,94.74
2023-04-12T01:10:09.664Z,94.87
2023-04-12T01:13:26.001Z,94.79
2023-04-12T01:16:07.853Z,95.09
2023-04-12T01:18:54.268Z,95.01
2023-04-12T01:21:56.156Z,95.03
2023-04-12T01:24:45.120Z,94.92
2023-04-12T01:27:51.211Z,95.25
2023-04-12T01:30:26.120Z,95.30
2023-04-12T01:33:14.661Z,95.09
2023-04-12T01:35:54.964Z,95.16
2023-04-12T01:38:33.717Z,95.02
2023-04-12T01:41:28.005Z,95.13
2023-04-12T01:44:14.894Z,95.01
2023-04-12T01:46:54.928Z,95.04
2023-04-12T01:49:46.843Z,95.04
2023-04-12T01:52:56.564Z,95.09
2023-04-12T01:55:59.309Z,95.18
2023-04-12T01:58:46.823Z,95.14
2023-04-12T02:01:26.290Z,95.03
2023-04-12T02:04:05.196Z,95.08
2023-04-12T02:07:07.554Z,95.04
2023-04-12T02:09:40.055Z,94.92
2023-04-12T02:12:28.300Z,95.18
2023-04-12T02:15:26.928Z,95.20
2023-04-12T02:18:05.560Z,95.08
2023-04-12T02:20:37.295Z,95.29
2023-04-12T02:23:24.526Z,95.33
2023-04-12T02:25:53.459Z,95.38
2023-04-12T02:28:37.152Z,95.32
2023-04-12T02:31:18.715Z,95.51
2023-04-12T02:33:51.028Z,95.56
2023-04-12T02:36:31.870Z,95.76
2023-04-12T02:39:04.373Z,95.74
2023-04-12T02:41:39.469Z,95.80
2023-04-12T02:44:16.132Z,95.78
2023-04-12T02:47:28.049Z,95.91
2023-04-12T02:50:38.959Z,95.80
2023-04-12T02:53:19.574Z,95.82
2023-04-12T02:55:53.193Z,95.96
2023-04-12T02:58:32.108Z,95.85
2023-04-12T03:01:14.341Z,95.75
2023-04-12T03:04:07.094Z,95.84
2023-04-12T03:06:58.759Z,95.71
2023-04-12T03:09:52.694Z,95.76
2023-04-12T03:12:45.197Z,95.45
2023-04-12T03:15:35.888Z,95.58
2023-04-12T03:18:25.538Z,95.41
2023-04-12T03:21:04.103Z,95.52
2023-04-12T03:23:42.657Z,95.20
2023-04-12T03:26:35.550Z,95.33
2023-04-12T03:29:49.462Z,95.33
2023-04-12T03:32:40.972Z,95.15
2023-04-12T03:35:27.936Z,95.18
2023-04-12T03:38:02.985Z,95.23
2023-04-12T03:40:40.082Z,95.36
2023-04-12T03:43:14.345Z,95.33
2023-04-12T03:45:52.516Z,95.30
2023-04-12T03:48:38.336Z,95.22
2023-04-12T03:51:14.956Z,95.25
2023-04-12T03:53:51.585Z,95.23
2023-04-12T03:57:05.303Z,95.31
2023-04-12T03:59:56.532Z,95.23
2023-04-12T04:03:03.580Z,95.10
2023-04-12T04:06:40.921Z,95.23
2023-04-12T04:09:30.504Z,95.16
2023-04-12T04:12:22.644Z,95.10
2023-04-12T04:15:07.020Z,95.14
2023-04-12T04:18:21.573Z,95.36
2023-04-12T04:21:07.861Z,95.40
2023-04-12T04:24:07.381Z,95.56
2023-04-12T04:27:00.477Z,95.58
2023-04-12T04:29:34.662Z,95.54
2023-04-12T04:32:16.032Z,95.78
2023-04-12T04:34:47.869Z,95.94
2023-04-12T04:37:21.524Z,96.04
2023-04-12T04:39:59.424Z,96.17
2023-04-12T04:42:36.743Z,96.48
2023-04-12T04:45:14.155Z,96.81
2023-04-12T04:47:44.088Z,96.84
2023-04-12T04:50:15.837Z,97.06
2023-04-12T04:52:48.498Z,97.13
2023-04-12T04:55:18.762Z,97.27
2023-04-12T04:57:49.896Z,97.68
2023-04-12T05:00:23.755Z,98.02
2023-04-12T05:03:21.513Z,98.24
2023-04-12T05:05:55.096Z,98.16
2023-04-12T05:08:27.028Z,98.40
2023-04-12T05:10:59.911Z,98.49
2023-04-12T05:13:31.259Z,98.43
2023-04-12T05:16:26.245Z,98.39
2023-04-12T05:18:56.384Z,98.41
2023-04-12T05:21:33.303Z,98.55
2023-04-12T05:24:06.060Z,98.57
2023-04-12T05:26:37.484Z,98.38
2023-04-12T05:29:15.134Z,98.55
2023-04-12T05:32:00.891Z,98.48
2023-04-12T05:34:33.937Z,98.22
2023-04-12T05:37:08.274Z,97.79
2023-04-12T05:39:48.514Z,97.52
2023-04-12T05:42:19.927Z,97.10
2023-04-12T05:44:50.056Z,97.26
2023-04-12T05:47:24.498Z,96.91
2023-04-12T05:49:57.436Z,96.69
2023-04-12T05:52:30.209Z,96.06
2023-04-12T05:55:00.165Z,95.35
2023-04-12T05:57:41.411Z,95.47
2023-04-12T06:00:14.301Z,94.89
2023-04-12T06:02:46.385Z,94.16
2023-04-12T06:05:18.280Z,93.37
2023-04-12T06:07:54.381Z,91.97
2023-04-12T06:10:23.622Z,91.32
2023-04-12T06:12:52.770Z,89.92
2023-04-12T06:15:23.750Z,89.51
2023-04-12T06:18:13.341Z,89.37
2023-04-12T06:20:41.970Z,88.62
2023-04-12T06:23:20.721Z,88.48
2023-04-12T06:26:04.487Z,87.28
2023-04-12T06:28:32.960Z,86.54
2023-04-12T06:31:01.415Z,86.16
2023-04-12T06:33:30.443Z,86.70
2023-04-12T06:35:59.128Z,86.83
2023-04-12T06:38:27.381Z,86.46
2023-04-12T06:40:55.952Z,86.25
2023-04-12T06:43:24.274Z,86.01
2023-04-12T06:45:52.747Z,85.44
2023-04-12T06:48:24.502Z,85.44
2023-04-12T06:51:02.052Z,85.10
2023-04-12T06:53:31.090Z,84.95
2023-04-12T06:56:04.342Z,84.79
2023-04-12T06:58:32.504Z,84.48
2023-04-12T07:01:10.273Z,84.52
2023-04-12T07:03:39.329Z,84.18
2023-04-12T07:06:21.839Z,83.67
2023-04-12T07:08:54.085Z,83.74
2023-04-12T07:11:23.364Z,84.12
2023-04-12T07:13:52.416Z,83.99
2023-04-12T07:16:21.031Z,82.89
2023-04-12T07:18:49.302Z,83.16
2023-04-12T07:21:18.992Z,83.71
2023-04-12T07:23:51.173Z,83.09
2023-04-12T07:26:20.091Z,81.64
2023-04-12T07:28:48.629Z,80.61
2023-04-12T07:31:17.086Z,79.78
2023-04-12T07:33:45.373Z,79.24
2023-04-12T07:36:16.537Z,79.38
2023-04-12T07:38:45.748Z,79.50
2023-04-12T07:41:14.019Z,79.47
2023-04-12T07:43:42.415Z,79.32
2023-04-12T07:46:21.672Z,78.77
2023-04-12T07:48:51.395Z,77.41
2023-04-12T07:51:19.692Z,77.76
2023-04-12T07:53:48.747Z,78.03
2023-04-12T07:56:19.969Z,76.65
2023-04-12T07:58:51.693Z,75.06
2023-04-12T08:01:25.523Z,74.71
2023-04-12T08:03:54.501Z,75.89
2023-04-12T08:06:22.799Z,73.87
2023-04-12T08:08:51.639Z,74.20
2023-04-12T08:11:29.572Z,75.27
2023-04-12T08:13:58.339Z,73.66
2023-04-12T08:16:27.774Z,73.99
2023-04-12T08:19:06.802Z,72.57
2023-04-12T08:21:59.036Z,72.44
2023-04-12T08:24:27.568Z,72.73
2023-04-12T08:27:07.144Z,73.56
2023-04-12T08:29:35.915Z,72.96
2023-04-12T08:32:05.461Z,72.58
2023-04-12T08:34:48.599Z,70.11
2023-04-12T08:37:18.011Z,69.94
2023-04-12T08:39:46.589Z,71.16
2023-04-12T08:42:17.137Z,71.07
2023-04-12T08:44:47.029Z,71.28
2023-04-12T08:47:17.047Z,70.55
2023-04-12T08:49:45.702Z,69.58
2023-04-12T08:52:14.708Z,69.53
2023-04-12T08:54:43.095Z,69.47
2023-04-12T08:57:13.236Z,68.65
2023-04-12T08:59:44.359Z,69.88
2023-04-12T09:02:14.707Z,68.51
2023-04-12T09:04:53.485Z,68.86
2023-04-12T09:07:28.961Z,69.90
2023-04-12T09:09:58.880Z,69.31
2023-04-12T09:12:28.016Z,67.68
2023-04-12T09:15:06.563Z,67.74
2023-04-12T09:17:42.799Z,66.95
2023-04-12T09:20:17.727Z,66.97
2023-04-12T09:22:46.923Z,66.96
2023-04-12T09:25:16.154Z,66.53
2023-04-12T09:27:48.502Z,67.26
2023-04-12T09:30:19.009Z,68.14
2023-04-12T09:32:50.838Z,67.95
2023-04-12T09:35:33.227Z,66.87
2023-04-12T09:38:10.574Z,66.75
2023-04-12T09:40:41.672Z,64.40
2023-04-12T09:43:11.032Z,62.37
2023-04-12T09:45:39.785Z,62.97
2023-04-12T09:48:17.919Z,61.82
2023-04-12T09:50:49.261Z,61.42
2023-04-12T09:53:27.733Z,61.99
2023-04-12T09:55:59.748Z,60.77
2023-04-12T09:58:31.830Z,60.95
2023-04-12T10:01:05.744Z,59.17
2023-04-12T10:03:43.396Z,58.48
2023-04-12T10:06:23.054Z,57.72
2023-04-12T10:09:04.784Z,57.52
2023-04-12T10:11:36.521Z,57.02
2023-04-12T10:14:07.146Z,56.52
2023-04-12T10:16:35.608Z,55.59
2023-04-12T10:19:24.677Z,53.98
2023-04-12T10:22:03.277Z,54.05
2023-04-12T10:24:49.554Z,54.18
2023-04-12T10:27:27.329Z,52.90
2023-04-12T10:30:19.831Z,54.32
2023-04-12T10:32:50.888Z,52.17
2023-04-12T10:35:19.216Z,52.27
2023-04-12T10:38:17.244Z,53.60
2023-04-12T10:41:07.341Z,54.51
2023-04-12T10:43:36.129Z,54.04
2023-04-12T10:46:07.238Z,52.38
2023-04-12T10:48:38.157Z,53.06
2023-04-12T10:51:25.279Z,53.11
2023-04-12T10:54:13.979Z,52.23
2023-04-12T10:56:44.120Z,52.57
2023-04-12T10:59:14.390Z,51.81
2023-04-12T11:02:27.862Z,51.57
2023-04-12T11:05:19.431Z,50.02
2023-04-12T11:07:53.684Z,49.81
2023-04-12T11:10:22.101Z,50.44
2023-04-12T11:13:08.376Z,50.76
2023-04-12T11:15:40.662Z,50.69
2023-04-12T11:18:09.569Z,50.00
2023-04-12T11:20:41.086Z,48.54
2023-04-12T11:23:11.760Z,47.47
2023-04-12T11:25:41.013Z,47.01
2023-04-12T11:28:25.120Z,47.49
2023-04-12T11:30:58.019Z,47.41
2023-04-12T11:33:37.721Z,46.26
2023-04-12T11:36:17.581Z,46.60
2023-04-12T11:38:47.736Z,46.08
2023-04-12T11:41:17.114Z,45.19
2023-04-12T11:43:48.731Z,45.77
2023-04-12T11:46:18.605Z,46.98
2023-04-12T11:48:50.959Z,45.35
2023-04-12T11:51:25.456Z,44.90
2023-04-12T11:53:55.169Z,44.11
2023-04-12T11:56:24.125Z,43.44
2023-04-12T11:58:52.517Z,44.61
2023-04-12T12:01:23.514Z,43.72
2023-04-12T12:03:55.763Z,43.68
2023-04-12T12:06:28.540Z,44.69
2023-04-12T12:09:07.600Z,43.79
2023-04-12T12:11:36.008Z,42.89
2023-04-12T12:14:04.842Z,42.44
2023-04-12T12:16:33.419Z,42.34
2023-04-12T12:19:06.948Z,43.41
2023-04-12T12:21:35.313Z,44.53
2023-04-12T12:24:11.215Z,44.03
2023-04-12T12:26:40.303Z,44.42
2023-04-12T12:29:17.897Z,45.21
2023-04-12T12:31:51.095Z,45.68
2023-04-12T12:34:19.960Z,46.97
2023-04-12T12:37:12.824Z,47.13
2023-04-12T12:40:16.804Z,45.90
2023-04-12T12:42:50.258Z,45.84
2023-04-12T12:45:20.671Z,45.74
2023-04-12T12:48:05.138Z,45.73
2023-04-12T12:50:35.821Z,45.69
2023-04-12T12:53:04.037Z,45.60
2023-04-12T12:55:32.565Z,45.99
2023-04-12T12:58:08.581Z,46.25
2023-04-12T13:00:37.021Z,46.37
2023-04-12T13:03:05.676Z,46.71
2023-04-12T13:05:43.693Z,47.05
2023-04-12T13:08:15.140Z,47.12
2023-04-12T13:10:56.006Z,47.25
2023-04-12T13:13:27.354Z,47.11
2023-04-12T13:16:49.339Z,47.34
2023-04-12T13:19:40.860Z,48.06
2023-04-12T13:22:09.802Z,48.63
2023-04-12T13:24:38.421Z,49.30
2023-04-12T13:27:09.327Z,48.71
2023-04-12T13:29:37.874Z,49.06
2023-04-12T13:32:26.747Z,47.71
2023-04-12T13:34:55.040Z,47.45
2023-04-12T13:37:23.612Z,47.23
2023-04-12T13:39:52.810Z,46.38
2023-04-12T13:42:24.648Z,46.32
2023-04-12T13:44:53.026Z,45.36
2023-04-12T13:47:21.846Z,45.16
2023-04-12T13:49:50.238Z,45.50
2023-04-12T13:52:21.352Z,46.99
2023-04-12T13:54:51.712Z,46.57
2023-04-12T13:57:25.783Z,46.13
2023-04-12T14:00:01.348Z,45.13
2023-04-12T14:02:32.713Z,44.51
2023-04-12T14:05:01.962Z,44.38
2023-04-12T14:07:34.341Z,43.58
2023-04-12T14:10:06.585Z,43.11
2023-04-12T14:12:37.235Z,43.26
2023-04-12T14:15:16.928Z,42.73
2023-04-12T14:17:48.560Z,41.73
2023-04-12T14:20:29.075Z,42.36
2023-04-12T14:22:57.506Z,43.05
2023-04-12T14:25:50.372Z,42.74
2023-04-12T14:28:31.206Z,42.28
2023-04-12T14:31:05.720Z,42.38
2023-04-12T14:33:37.849Z,42.80
2023-04-12T14:36:06.472Z,43.20
2023-04-12T14:38:35.585Z,42.90
2023-04-12T14:41:24.826Z,42.23
2023-04-12T14:43:53.889Z,42.22
2023-04-12T14:46:23.705Z,42.17
2023-04-12T14:48:52.170Z,42.88
2023-04-12T14:51:23.187Z,42.78
2023-04-12T14:54:14.713Z,43.04
2023-04-12T14:56:48.340Z,43.04
2023-04-12T14:59:31.979Z,43.34
2023-04-12T15:02:02.923Z,43.41
2023-04-12T15:04:52.052Z,43.63
2023-04-12T15:07:20.775Z,43.53
2023-04-12T15:10:09.376Z,43.93
2023-04-12T15:12:37.721Z,43.80
2023-04-12T15:15:15.907Z,44.04
2023-04-12T15:17:54.682Z,43.81
2023-04-12T15:20:36.174Z,43.95
2023-04-12T15:23:04.559Z,44.04
2023-04-12T15:25:33.572Z,44.70
2023-04-12T15:28:07.881Z,45.31
2023-04-12T15:30:55.352Z,45.64
2023-04-12T15:33:26.720Z,46.17
2023-04-12T15:36:08.857Z,45.99
2023-04-12T15:38:41.750Z,46.01
2023-04-12T15:41:11.185Z,46.14
2023-04-12T15:43:42.064Z,46.05
2023-04-12T15:46:14.184Z,46.60
2023-04-12T15:48:42.444Z,46.29
2023-04-12T15:51:17.671Z,46.50
2023-04-12T15:54:09.683Z,46.60
2023-04-12T15:56:38.852Z,46.73
2023-04-12T15:59:09.334Z,46.65
2023-04-12T16:01:41.269Z,46.67
2023-04-12T16:04:13.127Z,46.46
2023-04-12T16:06:42.141Z,46.90
2023-04-12T16:09:35.220Z,46.95
2023-04-12T16:13:07.594Z,47.31
2023-04-12T16:15:41.421Z,47.36
2023-04-12T16:18:52.509Z,47.46
2023-04-12T16:21:34.827Z,47.71
2023-04-12T16:24:12.347Z,47.40
2023-04-12T16:26:42.246Z,48.08
2023-04-12T16:29:11.103Z,48.02
2023-04-12T16:31:39.724Z,48.23
2023-04-12T16:34:08.723Z,48.46
2023-04-12T16:36:37.755Z,48.40
2023-04-12T16:39:06.844Z,48.80
2023-04-12T16:41:35.260Z,49.31
2023-04-12T16:44:04.259Z,49.38
2023-04-12T16:46:32.823Z,49.86
2023-04-12T16:49:04.124Z,50.45
2023-04-12T16:51:36.644Z,50.80
2023-04-12T16:54:06.627Z,50.97
2023-04-12T16:56:35.454Z,51.36
2023-04-12T16:59:04.700Z,51.84
2023-04-12T17:01:38.780Z,52.01
2023-04-12T17:04:13.179Z,51.88
2023-04-12T17:06:43.141Z,52.19
2023-04-12T17:09:18.545Z,52.65
2023-04-12T17:11:47.400Z,52.43
2023-04-12T17:14:17.087Z,52.88
2023-04-12T17:16:46.502Z,53.04
2023-04-12T17:19:16.054Z,53.44
2023-04-12T17:21:48.403Z,53.40
2023-04-12T17:24:19.622Z,53.58
2023-04-12T17:26:51.341Z,53.67
2023-04-12T17:29:20.554Z,53.99
2023-04-12T17:31:58.009Z,54.40
2023-04-12T17:34:27.544Z,54.44
2023-04-12T17:36:56.362Z,54.92
2023-04-12T17:39:38.921Z,54.38
2023-04-12T17:42:07.412Z,54.57
2023-04-12T17:44:35.843Z,55.02
2023-04-12T17:47:07.915Z,55.12
2023-04-12T17:49:39.054Z,55.14
2023-04-12T17:52:08.407Z,55.26
2023-04-12T17:54:37.393Z,55.37
2023-04-12T17:57:05.791Z,55.32
2023-04-12T17:59:37.004Z,55.66
2023-04-12T18:02:09.711Z,55.83
2023-04-12T18:04:38.853Z,55.65
2023-04-12T18:07:09.965Z,55.11
2023-04-12T18:09:41.017Z,55.90
2023-04-12T18:12:12.185Z,55.89
2023-04-12T18:14:44.167Z,55.94
2023-04-12T18:17:12.687Z,55.89
2023-04-12T18:19:41.093Z,55.37
2023-04-12T18:22:09.798Z,55.55
2023-04-12T18:24:38.746Z,55.00
2023-04-12T18:27:08.039Z,55.44
2023-04-12T18:29:39.321Z,54.73
2023-04-12T18:32:20.426Z,55.18
2023-04-12T18:34:49.528Z,54.92
2023-04-12T18:37:21.168Z,54.48
2023-04-12T18:39:54.433Z,54.48
2023-04-12T18:42:22.945Z,54.39
2023-04-12T18:44:52.463Z,54.51
2023-04-12T18:47:21.871Z,54.37
2023-04-12T18:49:50.856Z,54.26
2023-04-12T18:52:19.964Z,54.36
2023-04-12T18:54:49.762Z,54.38
2023-04-12T18:57:18.817Z,54.47
2023-04-12T18:59:57.856Z,54.29
2023-04-12T19:02:35.441Z,54.43
2023-04-12T19:05:09.045Z,54.43
2023-04-12T19:07:37.855Z,54.38
2023-04-12T19:10:12.896Z,54.26
2023-04-12T19:12:41.810Z,54.59
2023-04-12T19:15:20.723Z,54.35
2023-04-12T19:17:59.995Z,54.29
2023-04-12T19:20:33.317Z,54.70
2023-04-12T19:23:05.511Z,54.60
2023-04-12T19:25:35.744Z,54.45
2023-04-12T19:28:04.483Z,54.55
2023-04-12T19:30:33.021Z,54.62
2023-04-12T19:33:19.788Z,55.19
2023-04-12T19:35:48.686Z,54.82
2023-04-12T19:38:16.963Z,55.52
2023-04-12T19:40:45.313Z,55.29
2023-04-12T19:43:18.737Z,55.37
2023-04-12T19:46:07.767Z,55.65
2023-04-12T19:48:36.239Z,56.18
2023-04-12T19:51:05.699Z,56.26
2023-04-12T19:53:34.207Z,56.16
2023-04-12T19:56:04.373Z,56.47
2023-04-12T19:58:33.676Z,56.77
2023-04-12T20:01:04.849Z,56.60
2023-04-12T20:03:33.490Z,56.57
2023-04-12T20:06:05.467Z,56.85
2023-04-12T20:08:33.862Z,56.90
2023-04-12T20:11:25.542Z,57.00
2023-04-12T20:13:55.118Z,56.72
2023-04-12T20:16:37.221Z,56.77
2023-04-12T20:19:05.654Z,57.29
2023-04-12T20:21:34.709Z,57.84
2023-04-12T20:24:04.268Z,57.79
2023-04-12T20:26:36.703Z,57.82
2023-04-12T20:29:15.157Z,58.33
2023-04-12T20:31:43.504Z,58.29
2023-04-12T20:34:17.893Z,59.05
2023-04-12T20:36:46.783Z,58.94
2023-04-12T20:39:26.838Z,59.42
2023-04-12T20:42:01.243Z,59.54
2023-04-12T20:44:32.393Z,59.63
2023-04-12T20:47:02.334Z,59.92
2023-04-12T20:49:52.537Z,60.63
2023-04-12T20:52:21.020Z,60.37
2023-04-12T20:54:49.536Z,60.83
2023-04-12T20:57:19.985Z,61.01
2023-04-12T20:59:48.551Z,61.26
2023-04-12T21:02:20.378Z,61.29
2023-04-12T21:04:49.235Z,61.86
2023-04-12T21:07:18.534Z,61.95
2023-04-12T21:09:47.257Z,62.26
2023-04-12T21:12:17.840Z,62.58
2023-04-12T21:14:50.437Z,62.41
2023-04-12T21:17:22.653Z,62.71
2023-04-12T21:19:51.297Z,63.57
2023-04-12T21:22:19.654Z,62.92
2023-04-12T21:24:48.076Z,63.22
2023-04-12T21:27:19.757Z,63.37
2023-04-12T21:29:48.424Z,63.82
2023-04-12T21:32:17.193Z,63.88
2023-04-12T21:34:45.641Z,63.92
2023-04-12T21:37:14.411Z,63.99
2023-04-12T21:39:43.765Z,64.08
2023-04-12T21:42:11.973Z,64.05
2023-04-12T21:44:42.102Z,64.24
2023-04-12T21:47:10.398Z,64.26
2023-04-12T21:49:38.933Z,64.44
2023-04-12T21:52:07.311Z,64.30
2023-04-12T21:54:37.182Z,64.68
2023-04-12T21:57:06.404Z,64.56
2023-04-12T21:59:34.617Z,64.56
2023-04-12T22:02:03.035Z,64.81
2023-04-12T22:04:31.531Z,64.66
2023-04-12T22:07:02.463Z,64.66
2023-04-12T22:09:30.782Z,64.85
2023-04-12T22:12:02.239Z,65.11
2023-04-12T22:14:31.957Z,64.83
2023-04-12T22:17:00.314Z,64.92
2023-04-12T22:19:28.937Z,65.36
2023-04-12T22:21:57.371Z,65.53
2023-04-12T22:24:46.304Z,66.05
2023-04-12T22:27:17.213Z,65.66
2023-04-12T22:29:48.796Z,65.65
2023-04-12T22:32:17.442Z,66.07
2023-04-12T22:34:48.397Z,66.41
2023-04-12T22:37:23.280Z,66.39
2023-04-12T22:39:53.403Z,66.50
2023-04-12T22:42:26.081Z,66.73
2023-04-12T22:44:55.096Z,66.66
2023-04-12T22:47:23.549Z,66.57
2023-04-12T22:49:54.642Z,66.72
2023-04-12T22:52:22.974Z,66.86
2023-04-12T22:54:51.688Z,67.01
2023-04-12T22:57:20.167Z,67.16
2023-04-12T22:59:48.648Z,67.46
2023-04-12T23:02:17.923Z,67.62
2023-04-12T23:04:49.334Z,67.35
2023-04-12T23:07:17.583Z,67.42
2023-04-12T23:09:46.125Z,67.90
2023-04-12T23:12:14.565Z,67.55
2023-04-12T23:14:43.256Z,67.65
2023-04-12T23:17:11.472Z,67.81
2023-04-12T23:19:39.685Z,67.53
2023-04-12T23:22:09.186Z,67.81
2023-04-12T23:24:37.801Z,67.75
2023-04-12T23:27:06.329Z,68.01
2023-04-12T23:29:35.223Z,67.89
2023-04-12T23:32:03.920Z,67.89
2023-04-12T23:34:35.991Z,68.00
2023-04-12T23:37:04.213Z,68.01
2023-04-12T23:39:36.166Z,68.05
2023-04-12T23:42:04.892Z,68.07
2023-04-12T23:44:33.535Z,68.08
2023-04-12T23:47:02.668Z,68.22
2023-04-12T23:49:31.382Z,68.10
2023-04-12T23:52:00.276Z,68.07
2023-04-12T23:54:31.177Z,68.54
2023-04-12T23:57:07.311Z,68.35
2023-04-12T23:59:36.959Z,68.56
